Time;durP1;ratioP1;P1;durP2;ratioP2;P2;SDS_P1;SDS_P2;PMS_P1;PMS_P2;Temp;Humidity;BMP_temperature;BMP_pressure;BME280_temperature;BME280_humidity;BME280_pressure;Samples;Min_cycle;Max_cycle;Signal;HPM_P1;HPM_P2
2021/04/12 00:02:21;;;;;;;4.00;1.75;;;5.00;84.60;;;;;;5037221;28;20049;-64
2021/04/12 00:04:54;;;;;;;4.40;1.35;;;5.10;85.40;;;;;;5042471;28;20091;-63
2021/04/12 00:07:31;;;;;;;4.82;1.80;;;5.20;84.80;;;;;;5072504;28;20279;-64
2021/04/12 00:10:06;;;;;;;4.07;1.50;;;5.20;85.90;;;;;;5040685;28;20045;-64
2021/04/12 00:12:41;;;;;;;4.00;1.35;;;5.30;84.70;;;;;;5037253;28;20200;-64
2021/04/12 00:15:17;;;;;;;4.13;1.73;;;5.40;83.40;;;;;;5039034;28;20222;-64
2021/04/12 00:17:48;;;;;;;3.92;1.20;;;5.40;82.70;;;;;;5039698;28;20084;-63
2021/04/12 00:20:23;;;;;;;2.17;1.30;;;5.40;83.20;;;;;;5039797;28;20049;-65
2021/04/12 00:22:56;;;;;;;4.50;1.65;;;5.30;83.40;;;;;;5039650;28;20053;-64
2021/04/12 00:25:32;;;;;;;2.97;0.95;;;5.40;83.20;;;;;;5042550;28;20069;-64
2021/04/12 00:28:05;;;;;;;1.83;1.25;;;5.30;82.30;;;;;;5044489;28;20118;-63
2021/04/12 00:30:36;;;;;;;2.40;1.05;;;5.40;83.30;;;;;;5038745;28;20175;-65
2021/04/12 00:33:11;;;;;;;3.50;1.42;;;5.40;83.00;;;;;;5040900;28;20547;-64
2021/04/12 00:35:46;;;;;;;2.45;1.45;;;5.40;82.90;;;;;;5039930;28;20267;-64
2021/04/12 00:38:23;;;;;;;2.08;1.02;;;5.40;82.70;;;;;;5042536;28;20087;-64
2021/04/12 00:41:01;;;;;;;6.25;1.55;;;5.40;82.20;;;;;;5041066;28;20064;-64
2021/04/12 00:43:38;;;;;;;1.35;0.80;;;5.30;82.90;;;;;;5038245;28;20281;-63
2021/04/12 00:46:40;;;;;;;1.80;1.17;;;5.20;82.90;;;;;;5039988;28;20268;-63
2021/04/12 00:49:31;;;;;;;2.15;1.30;;;5.20;83.30;;;;;;5072107;28;20064;-63
2021/04/12 00:52:08;;;;;;;3.05;1.38;;;5.30;82.90;;;;;;5042370;28;20057;-63
2021/04/12 00:55:08;;;;;;;2.47;1.40;;;5.20;82.70;;;;;;5033366;28;20454;-63
2021/04/12 00:57:49;;;;;;;2.38;1.17;;;5.20;83.10;;;;;;5027539;28;20976;-63
2021/04/12 01:00:27;;;;;;;2.58;1.10;;;5.20;82.80;;;;;;5033038;28;20088;-64
2021/04/12 01:03:04;;;;;;;2.90;1.17;;;5.20;83.00;;;;;;5037313;28;20273;-64
2021/04/12 01:05:44;;;;;;;2.75;1.02;;;5.20;83.20;;;;;;5045512;28;20530;-63
2021/04/12 01:08:31;;;;;;;;;;;5.20;82.50;;;;;;5039471;28;20276;-64
2021/04/12 01:11:38;;;;;;;2.70;1.75;;;5.30;82.10;;;;;;5039301;28;20212;-63
2021/04/12 01:14:56;;;;;;;1.73;0.95;;;5.20;82.80;;;;;;5037775;28;20356;-64
2021/04/12 01:17:40;;;;;;;2.95;1.38;;;5.30;82.00;;;;;;5039676;28;20100;-64
2021/04/12 01:20:48;;;;;;;5.88;1.45;;;5.20;82.20;;;;;;5041786;28;20536;-63
2021/04/12 01:23:59;;;;;;;2.70;1.30;;;5.20;82.50;;;;;;5037009;28;20405;-64
2021/04/12 01:27:12;;;;;;;2.40;1.30;;;5.20;82.40;;;;;;1003224;28;10001876;-63
2021/04/12 01:30:24;;;;;;;2.85;1.50;;;5.20;82.70;;;;;;4957386;28;20738;-63
2021/04/12 01:33:24;;;;;;;3.53;1.30;;;5.20;82.40;;;;;;4931029;28;20560;-63
2021/04/12 01:36:27;;;;;;;3.65;1.70;;;5.20;82.20;;;;;;4942552;28;21520;-63
2021/04/12 01:39:03;;;;;;;4.13;1.45;;;5.10;82.50;;;;;;4954885;28;20682;-62
2021/04/12 01:41:46;;;;;;;3.25;1.52;;;5.20;83.20;;;;;;4954892;28;20306;-64
2021/04/12 01:44:30;;;;;;;2.88;1.33;;;5.20;82.10;;;;;;4948906;28;20351;-64
2021/04/12 01:47:08;;;;;;;3.30;1.67;;;5.20;82.00;;;;;;4956883;28;20301;-64
2021/04/12 01:50:04;;;;;;;3.28;1.33;;;5.20;82.10;;;;;;4951887;28;20341;-64
2021/04/12 01:53:15;;;;;;;3.78;1.60;;;5.10;81.60;;;;;;4928524;28;20256;-64
2021/04/12 01:56:04;;;;;;;5.05;1.45;;;5.10;82.10;;;;;;4956744;28;20488;-63
2021/04/12 01:58:44;;;;;;;3.40;1.95;;;5.10;82.30;;;;;;4957727;28;20416;-64
2021/04/12 02:01:39;;;;;;;3.38;1.63;;;5.10;82.40;;;;;;4955360;28;20051;-64
2021/04/12 02:04:18;;;;;;;3.40;1.60;;;5.20;82.40;;;;;;4956335;28;20523;-64
2021/04/12 02:07:14;;;;;;;3.95;2.00;;;5.10;81.90;;;;;;4962209;28;20262;-63
2021/04/12 02:10:06;;;;;;;4.95;1.52;;;5.20;82.40;;;;;;4953507;28;21121;-64
2021/04/12 02:12:50;;;;;;;5.55;1.75;;;5.20;82.60;;;;;;4961386;28;20403;-64
2021/04/12 02:15:25;;;;;;;3.78;1.65;;;5.10;82.70;;;;;;4960062;28;20050;-64
2021/04/12 02:18:05;;;;;;;3.85;1.70;;;5.10;82.50;;;;;;4957694;28;20049;-64
2021/04/12 02:20:45;;;;;;;3.85;2.05;;;5.10;82.80;;;;;;4974291;28;20179;-64
2021/04/12 02:23:29;;;;;;;5.95;2.00;;;5.20;82.60;;;;;;4962469;28;20346;-63
2021/04/12 02:26:12;;;;;;;3.83;2.20;;;5.20;82.70;;;;;;4958607;28;20233;-63
2021/04/12 02:29:06;;;;;;;4.43;2.25;;;5.00;82.70;;;;;;4959077;28;20282;-64
2021/04/12 02:31:46;;;;;;;6.28;1.90;;;4.90;83.60;;;;;;4959953;28;20384;-63
2021/04/12 02:34:31;;;;;;;4.68;1.65;;;4.90;84.40;;;;;;4958046;28;20047;-64
2021/04/12 02:37:12;;;;;;;3.40;1.55;;;5.00;84.20;;;;;;4959854;28;20039;-63
2021/04/12 02:39:56;;;;;;;3.50;1.90;;;5.10;83.40;;;;;;4958618;28;20427;-64
2021/04/12 02:42:39;;;;;;;4.68;1.70;;;5.10;83.50;;;;;;4958227;28;20050;-63
2021/04/12 02:45:31;;;;;;;4.05;2.13;;;5.10;82.90;;;;;;4954537;28;20066;-64
2021/04/12 02:48:16;;;;;;;3.40;1.80;;;5.20;83.00;;;;;;4959325;28;20115;-64
2021/04/12 02:51:02;;;;;;;4.00;1.67;;;5.20;82.60;;;;;;4949475;28;21309;-64
2021/04/12 02:53:51;;;;;;;3.63;1.80;;;5.20;82.80;;;;;;4952324;28;20269;-64
2021/04/12 02:56:34;;;;;;;3.85;2.10;;;5.20;82.70;;;;;;4959735;28;20216;-64
2021/04/12 02:59:23;;;;;;;4.47;2.38;;;5.20;82.80;;;;;;4957144;28;20133;-63
2021/04/12 03:02:36;;;;;;;3.60;2.03;;;5.20;82.70;;;;;;4954765;28;20047;-64
2021/04/12 03:05:23;;;;;;;6.65;2.22;;;5.10;82.70;;;;;;4957926;28;20344;-63
2021/04/12 03:08:19;;;;;;;4.10;2.10;;;5.10;83.30;;;;;;4967894;28;20040;-63
2021/04/12 03:11:07;;;;;;;4.68;2.08;;;5.10;83.70;;;;;;4954586;28;20699;-64
2021/04/12 03:14:11;;;;;;;4.32;1.75;;;5.00;84.50;;;;;;4955348;28;20751;-64
2021/04/12 03:17:06;;;;;;;3.30;2.08;;;5.00;84.50;;;;;;4901207;28;20727;-64
2021/04/12 03:20:19;;;;;;;3.95;1.90;;;5.10;83.60;;;;;;4954016;28;20745;-63
2021/04/12 03:23:15;;;;;;;3.00;1.50;;;4.90;83.30;;;;;;4935404;28;20706;-64
2021/04/12 03:26:00;;;;;;;4.57;1.85;;;5.00;83.10;;;;;;4976241;28;20062;-64
2021/04/12 03:28:58;;;;;;;4.15;1.88;;;4.90;83.30;;;;;;4959607;28;20594;-64
2021/04/12 03:31:49;;;;;;;4.95;1.77;;;4.80;84.20;;;;;;4972117;28;20111;-63
2021/04/12 03:34:24;;;;;;;3.75;1.75;;;4.90;84.00;;;;;;4957375;28;20055;-64
2021/04/12 03:37:18;;;;;;;4.13;1.35;;;5.00;83.60;;;;;;4960938;28;20227;-64
2021/04/12 03:39:49;;;;;;;3.25;1.42;;;5.00;82.80;;;;;;4933091;28;20549;-64
2021/04/12 03:42:30;;;;;;;4.72;1.92;;;5.00;82.30;;;;;;4940119;28;20051;-64
2021/04/12 03:45:15;;;;;;;5.60;1.83;;;5.00;82.60;;;;;;4945186;28;20113;-63
2021/04/12 03:48:11;;;;;;;4.90;1.90;;;5.00;82.40;;;;;;4949293;28;21057;-64
2021/04/12 03:51:09;;;;;;;5.28;1.92;;;4.90;82.60;;;;;;4957999;28;20454;-64
2021/04/12 03:54:10;;;;;;;2.53;1.30;;;4.80;83.20;;;;;;4987806;28;20051;-64
2021/04/12 03:57:13;;;;;;;3.88;1.50;;;4.90;83.20;;;;;;5054350;28;20497;-64
2021/04/12 03:59:55;;;;;;;3.53;1.73;;;4.80;83.20;;;;;;4905475;28;20862;-63
2021/04/12 04:02:38;;;;;;;2.63;1.50;;;4.80;83.90;;;;;;5003229;28;20099;-63
2021/04/12 04:05:35;;;;;;;2.67;1.42;;;4.70;84.70;;;;;;5045832;28;20041;-64
2021/04/12 04:08:16;;;;;;;7.03;2.00;;;4.80;84.00;;;;;;5043694;28;20104;-63
2021/04/12 04:11:18;;;;;;;3.25;1.77;;;4.80;84.40;;;;;;5041961;28;20050;-64
2021/04/12 04:14:11;;;;;;;3.83;2.13;;;4.70;84.30;;;;;;5042153;28;20529;-63
2021/04/12 04:16:54;;;;;;;2.38;1.52;;;4.70;84.30;;;;;;5002749;28;20440;-64
2021/04/12 04:19:42;;;;;;;3.10;1.45;;;4.70;84.50;;;;;;5035268;28;20053;-64
2021/04/12 04:22:33;;;;;;;3.10;1.58;;;4.70;85.30;;;;;;5037828;28;20145;-65
2021/04/12 04:25:14;;;;;;;2.63;1.40;;;4.70;84.30;;;;;;5040201;28;20557;-63
2021/04/12 04:28:09;;;;;;;3.35;1.35;;;4.50;84.80;;;;;;5041122;28;20492;-63
2021/04/12 04:31:03;;;;;;;3.95;1.60;;;4.50;85.70;;;;;;5037851;28;20400;-64
2021/04/12 04:33:43;;;;;;;4.55;1.65;;;4.60;86.30;;;;;;5037516;28;20188;-64
2021/04/12 04:36:31;;;;;;;3.55;1.73;;;4.50;86.10;;;;;;5036453;28;20124;-64
2021/04/12 04:39:25;;;;;;;4.82;1.95;;;4.50;86.20;;;;;;5040684;28;20053;-64
2021/04/12 04:42:12;;;;;;;2.95;1.55;;;4.60;86.00;;;;;;5037800;28;20126;-63
2021/04/12 04:44:58;;;;;;;5.43;2.45;;;4.60;85.80;;;;;;5030479;28;20513;-63
2021/04/12 04:47:55;;;;;;;3.67;1.45;;;4.70;84.90;;;;;;5040206;28;20391;-63
2021/04/12 04:50:46;;;;;;;4.63;1.45;;;4.50;85.20;;;;;;5037890;28;20386;-64
2021/04/12 04:53:43;;;;;;;5.85;2.42;;;4.40;85.60;;;;;;5039283;28;20049;-64
2021/04/12 04:56:22;;;;;;;4.57;2.20;;;4.30;84.70;;;;;;5032110;28;20052;-64
2021/04/12 04:59:23;;;;;;;4.72;1.48;;;4.30;85.60;;;;;;5039479;28;20050;-64
2021/04/12 05:02:03;;;;;;;2.65;1.25;;;4.40;85.20;;;;;;5032781;28;20512;-63
2021/04/12 05:05:17;;;;;;;2.33;1.27;;;4.40;84.30;;;;;;5036727;28;20520;-63
2021/04/12 05:08:26;;;;;;;2.15;1.20;;;4.40;84.60;;;;;;5039241;28;20965;-64
2021/04/12 05:11:21;;;;;;;2.60;1.30;;;4.50;83.30;;;;;;4951426;28;20438;-64
2021/04/12 05:14:26;;;;;;;4.10;1.83;;;4.50;83.30;;;;;;4955423;28;20369;-64
2021/04/12 05:20:03;;;;;;;3.28;1.42;;;4.50;82.30;;;;;;5113632;27;20394;-63
2021/04/12 05:23:09;;;;;;;3.33;1.38;;;4.40;82.00;;;;;;5117870;28;20055;-63
2021/04/12 05:25:59;;;;;;;5.00;1.10;;;4.50;82.70;;;;;;5117108;28;20052;-63
2021/04/12 05:29:14;;;;;;;2.95;1.35;;;4.70;81.90;;;;;;5114078;28;20048;-63
2021/04/12 05:32:03;;;;;;;3.38;1.48;;;4.60;81.90;;;;;;5094014;28;20071;-63
2021/04/12 05:34:51;;;;;;;9.90;1.63;;;4.60;81.30;;;;;;5113075;28;20243;-63
2021/04/12 05:37:58;;;;;;;2.70;1.20;;;4.70;80.20;;;;;;5119402;28;20060;-63
2021/04/12 05:40:39;;;;;;;3.45;1.65;;;4.90;80.50;;;;;;5027639;28;20281;-64
2021/04/12 05:43:18;;;;;;;2.72;0.90;;;4.90;79.40;;;;;;5108706;28;20070;-64
2021/04/12 05:46:10;;;;;;;2.03;1.05;;;5.00;79.10;;;;;;5097154;28;20060;-65
2021/04/12 05:48:58;;;;;;;2.92;1.17;;;4.80;79.60;;;;;;5107252;27;20060;-63
2021/04/12 05:51:41;;;;;;;3.13;1.27;;;5.00;80.70;;;;;;5105074;28;20051;-64
2021/04/12 05:54:41;;;;;;;2.75;0.90;;;5.20;79.80;;;;;;5105032;28;20044;-64
2021/04/12 05:57:35;;;;;;;3.95;1.33;;;5.30;79.30;;;;;;5105721;28;20347;-64
2021/04/12 06:00:22;;;;;;;5.05;1.23;;;5.30;79.20;;;;;;5108034;28;20051;-63
2021/04/12 06:03:16;;;;;;;4.50;0.93;;;5.20;78.40;;;;;;5106635;28;20066;-63
2021/04/12 06:06:17;;;;;;;5.05;1.35;;;5.20;79.40;;;;;;5102244;28;20643;-63
2021/04/12 06:08:52;;;;;;;;;;;5.30;79.30;;;;;;5109415;28;20056;-64
2021/04/12 06:11:56;;;;;;;1.77;0.93;;;5.10;78.10;;;;;;5107421;28;19916;-63
2021/04/12 06:14:53;;;;;;;2.00;1.05;;;5.10;78.20;;;;;;5100510;28;20056;-64
2021/04/12 06:17:48;;;;;;;3.35;1.17;;;5.10;78.40;;;;;;5101706;28;20044;-64
2021/04/12 06:20:35;;;;;;;3.40;0.93;;;5.20;78.10;;;;;;5107630;28;20040;-63
2021/04/12 06:23:27;;;;;;;2.65;0.90;;;5.10;78.30;;;;;;5104261;28;20094;-64
2021/04/12 06:26:44;;;;;;;1.58;0.93;;;5.20;78.00;;;;;;5106512;28;20347;-63
2021/04/12 06:29:37;;;;;;;2.75;1.30;;;5.20;77.70;;;;;;5037160;28;20272;-64
2021/04/12 06:32:37;;;;;;;1.30;0.63;;;5.20;78.10;;;;;;5091029;28;20053;-63
2021/04/12 06:35:40;;;;;;;1.45;0.77;;;5.10;78.10;;;;;;5068878;28;20055;-65
2021/04/12 06:38:29;;;;;;;2.92;1.02;;;5.20;77.30;;;;;;5092964;28;20093;-64
2021/04/12 06:41:42;;;;;;;3.50;0.80;;;5.20;77.20;;;;;;5093769;28;20111;-64
2021/04/12 06:44:53;;;;;;;2.05;1.25;;;5.30;77.70;;;;;;5006540;28;20344;-63
2021/04/12 06:47:59;;;;;;;1.58;0.65;;;5.30;76.90;;;;;;5091591;28;20053;-64
2021/04/12 06:51:07;;;;;;;4.35;1.40;;;5.20;76.10;;;;;;5047158;28;20165;-64
2021/04/12 06:54:22;;;;;;;2.58;0.70;;;5.30;75.30;;;;;;5088271;28;20058;-64
2021/04/12 06:57:43;;;;;;;1.23;0.65;;;5.50;75.30;;;;;;5088417;28;20048;-64
2021/04/12 07:00:43;;;;;;;1.58;0.82;;;5.50;74.10;;;;;;5086808;28;20239;-63
2021/04/12 07:03:49;;;;;;;1.37;0.67;;;5.60;73.90;;;;;;5089664;28;20127;-64
2021/04/12 07:06:39;;;;;;;1.25;0.68;;;5.70;73.80;;;;;;5022753;28;20116;-63
2021/04/12 07:09:45;;;;;;;2.53;1.25;;;5.80;73.00;;;;;;5092769;28;20064;-64
2021/04/12 07:13:05;;;;;;;1.27;0.70;;;5.80;72.30;;;;;;5094301;28;20063;-63
2021/04/12 07:16:00;;;;;;;1.75;1.00;;;6.00;72.40;;;;;;5095628;28;20340;-64
2021/04/12 07:19:29;;;;;;;1.10;0.70;;;6.10;71.50;;;;;;5103188;28;20048;-63
2021/04/12 07:22:41;;;;;;;1.40;0.77;;;6.20;70.50;;;;;;5074101;28;20045;-63
2021/04/12 07:25:43;;;;;;;1.95;0.60;;;6.30;70.90;;;;;;5046255;28;20066;-63
2021/04/12 07:28:45;;;;;;;1.70;0.70;;;6.50;68.70;;;;;;5091430;28;20048;-64
2021/04/12 07:31:51;;;;;;;2.50;0.85;;;6.50;69.00;;;;;;5093660;28;20044;-64
2021/04/12 07:35:05;;;;;;;1.58;0.73;;;6.60;69.00;;;;;;5060069;28;20063;-63
2021/04/12 07:38:09;;;;;;;2.35;0.77;;;6.70;66.90;;;;;;5093804;28;20098;-64
2021/04/12 07:41:13;;;;;;;0.80;0.50;;;6.60;66.30;;;;;;5092870;28;20080;-63
2021/04/12 07:44:36;;;;;;;1.25;0.45;;;6.70;66.60;;;;;;5093176;28;23920;-63
2021/04/12 07:48:00;;;;;;;4.95;1.33;;;6.70;66.30;;;;;;5092244;28;20048;-64
2021/04/12 07:54:47;;;;;;;1.60;0.63;;;6.90;63.10;;;;;;5093542;28;20067;-63
2021/04/12 07:57:51;;;;;;;0.90;0.40;;;7.00;63.70;;;;;;5092708;28;20056;-64
2021/04/12 08:00:58;;;;;;;3.75;0.40;;;7.00;64.40;;;;;;5102707;28;20047;-62
2021/04/12 08:04:00;;;;;;;4.55;0.68;;;7.10;63.10;;;;;;5093815;28;20343;-63
2021/04/12 08:07:04;;;;;;;2.20;0.68;;;6.80;63.70;;;;;;5094355;28;20045;-63
2021/04/12 08:10:28;;;;;;;2.72;0.60;;;6.70;64.90;;;;;;5104015;28;20059;-63
2021/04/12 08:13:33;;;;;;;1.05;0.30;;;6.70;64.10;;;;;;5097189;28;20056;-63
2021/04/12 08:16:52;;;;;;;1.95;0.55;;;6.60;64.20;;;;;;5094380;28;20274;-63
2021/04/12 08:19:56;;;;;;;2.75;0.50;;;6.60;64.70;;;;;;5094668;28;20347;-63
2021/04/12 08:23:02;;;;;;;0.57;0.38;;;6.60;63.40;;;;;;5090966;28;20047;-62
2021/04/12 08:26:08;;;;;;;1.40;0.50;;;6.70;63.50;;;;;;5063808;28;20362;-63
2021/04/12 08:29:22;;;;;;;1.77;1.02;;;6.80;63.00;;;;;;5085820;28;20278;-63
2021/04/12 08:32:27;;;;;;;0.85;0.35;;;6.80;63.20;;;;;;5091262;28;20063;-62
2021/04/12 08:35:34;;;;;;;2.35;0.38;;;7.00;61.70;;;;;;5085155;28;20374;-62
2021/04/12 08:38:35;;;;;;;2.60;0.70;;;7.20;61.50;;;;;;5093354;28;20052;-61
2021/04/12 08:41:17;;;;;;;;;;;7.70;58.40;;;;;;5071878;28;20079;-62
2021/04/12 08:44:41;;;;;;;2.47;0.68;;;7.60;57.40;;;;;;5085643;28;20187;-64
2021/04/12 08:47:38;;;;;;;0.52;0.30;;;7.80;58.00;;;;;;5090270;28;20060;-63
2021/04/12 08:50:32;;;;;;;1.13;0.30;;;7.60;58.10;;;;;;5089322;28;20286;-62
2021/04/12 08:53:37;;;;;;;2.63;0.60;;;7.30;57.00;;;;;;5050041;28;20117;-62
2021/04/12 08:56:30;;;;;;;0.88;0.40;;;7.10;58.70;;;;;;5093214;28;20250;-63
2021/04/12 08:59:38;;;;;;;0.75;0.43;;;7.40;58.90;;;;;;5091758;28;20048;-62
2021/04/12 09:02:28;;;;;;;1.98;0.50;;;7.60;59.50;;;;;;5090591;28;20067;-62
2021/04/12 09:05:26;;;;;;;1.00;0.38;;;7.60;57.20;;;;;;5090583;28;20056;-63
2021/04/12 09:08:30;;;;;;;2.47;0.77;;;7.50;56.80;;;;;;5093960;28;20068;-62
2021/04/12 09:11:38;;;;;;;5.18;1.05;;;7.90;56.80;;;;;;5092393;28;20060;-62
2021/04/12 09:14:46;;;;;;;0.80;0.40;;;8.30;55.00;;;;;;5097073;28;20072;-62
2021/04/12 09:17:41;;;;;;;1.30;0.43;;;8.10;52.40;;;;;;5076028;28;20044;-62
2021/04/12 09:20:31;;;;;;;1.40;0.57;;;8.70;52.60;;;;;;5088309;28;20079;-63
2021/04/12 09:23:22;;;;;;;7.47;0.93;;;9.30;50.90;;;;;;5076916;28;20378;-62
2021/04/12 09:26:33;;;;;;;1.50;0.50;;;9.30;51.40;;;;;;5071545;28;20057;-63
2021/04/12 09:29:30;;;;;;;0.95;0.57;;;9.40;49.20;;;;;;5089356;28;20145;-62
2021/04/12 09:32:25;;;;;;;1.92;0.35;;;9.90;47.90;;;;;;5073503;28;20239;-62
2021/04/12 09:35:26;;;;;;;0.63;0.30;;;9.90;46.60;;;;;;5089828;28;20351;-62
2021/04/12 09:38:36;;;;;;;0.63;0.40;;;10.40;47.70;;;;;;5055925;28;20067;-62
2021/04/12 09:41:32;;;;;;;2.35;0.50;;;10.30;45.00;;;;;;5090644;28;20351;-63
2021/04/12 09:44:38;;;;;;;1.02;0.40;;;9.90;47.30;;;;;;5092953;28;20043;-63
2021/04/12 09:47:40;;;;;;;1.17;0.32;;;9.90;47.30;;;;;;5054023;28;20059;-62
2021/04/12 09:50:50;;;;;;;1.10;0.25;;;9.40;46.80;;;;;;5087549;28;20056;-62
2021/04/12 09:53:48;;;;;;;2.28;0.40;;;9.00;47.90;;;;;;5092546;28;20136;-62
2021/04/12 09:57:18;;;;;;;3.53;0.65;;;9.40;49.20;;;;;;5089519;28;20059;-62
2021/04/12 09:59:56;;;;;;;1.92;0.30;;;9.60;48.10;;;;;;5085199;28;20331;-63
2021/04/12 10:02:53;;;;;;;1.90;0.50;;;9.60;46.20;;;;;;5086251;28;20076;-62
2021/04/12 10:05:57;;;;;;;1.65;0.30;;;10.00;47.30;;;;;;5086825;28;20056;-63
2021/04/12 10:08:32;;;;;;;0.60;0.32;;;10.80;45.20;;;;;;5045673;28;20055;-63
2021/04/12 10:11:05;;;;;;;1.00;0.38;;;11.30;43.50;;;;;;5090757;28;20059;-66
2021/04/12 10:13:49;;;;;;;2.13;0.60;;;10.60;42.80;;;;;;5093662;28;20044;-63
2021/04/12 10:16:30;;;;;;;1.42;0.40;;;10.70;44.90;;;;;;5092213;28;20076;-63
2021/04/12 10:19:10;;;;;;;3.95;0.50;;;11.00;43.00;;;;;;5092401;28;20056;-62
2021/04/12 10:21:46;;;;;;;;;;;11.20;40.70;;;;;;5094825;28;20347;-63
2021/04/12 10:24:20;;;;;;;1.02;0.30;;;11.00;41.50;;;;;;5092482;28;19924;-63
2021/04/12 10:26:55;;;;;;;1.70;0.50;;;11.10;42.80;;;;;;5091048;28;20090;-64
2021/04/12 10:29:34;;;;;;;1.05;0.52;;;10.90;43.30;;;;;;5092020;28;20071;-63
2021/04/12 10:32:12;;;;;;;0.93;0.57;;;11.60;44.00;;;;;;5091843;28;20055;-62
2021/04/12 10:34:45;;;;;;;2.08;0.50;;;11.40;44.50;;;;;;5093328;28;20052;-63
2021/04/12 10:37:28;;;;;;;1.83;0.57;;;10.60;44.70;;;;;;5093197;28;20060;-63
2021/04/12 10:40:05;;;;;;;4.20;0.60;;;10.60;44.80;;;;;;5093087;28;20060;-62
2021/04/12 10:42:41;;;;;;;1.15;0.47;;;11.00;43.70;;;;;;5094829;28;20148;-63
2021/04/12 10:45:16;;;;;;;1.55;0.57;;;12.60;40.40;;;;;;5095224;28;20367;-62
2021/04/12 10:47:58;;;;;;;1.60;0.40;;;14.60;36.80;;;;;;5092744;28;20055;-62
2021/04/12 10:50:46;;;;;;;;;;;16.60;32.60;;;;;;5095601;28;20058;-62
2021/04/12 10:53:48;;;;;;;2.38;0.80;;;15.40;31.70;;;;;;5084794;28;19991;-62
2021/04/12 10:56:19;;;;;;;1.85;0.40;;;13.10;36.10;;;;;;5096330;28;20139;-62
2021/04/12 10:58:57;;;;;;;3.28;0.95;;;12.20;41.40;;;;;;5092780;28;20040;-61
2021/04/12 11:01:37;;;;;;;1.85;0.60;;;11.70;40.80;;;;;;5088804;28;20076;-63
2021/04/12 11:04:25;;;;;;;3.20;0.80;;;11.10;42.50;;;;;;5089380;28;20109;-63
2021/04/12 11:07:06;;;;;;;2.95;0.70;;;10.90;43.40;;;;;;5092412;28;20056;-63
2021/04/12 11:10:01;;;;;;;0.70;0.30;;;10.40;44.50;;;;;;5095162;28;20058;-63
2021/04/12 11:12:58;;;;;;;3.30;0.47;;;10.00;47.00;;;;;;5091267;28;20242;-62
2021/04/12 11:15:49;;;;;;;2.97;0.60;;;9.40;48.70;;;;;;5096652;28;20048;-63
2021/04/12 11:18:31;;;;;;;2.25;0.73;;;9.00;46.60;;;;;;5090857;28;20244;-62
2021/04/12 11:39:45;;;;;;;0.77;0.28;;;19.20;26.00;;;;;;5011413;23;20052;-85
2021/04/12 11:42:18;;;;;;;3.28;0.82;;;18.70;25.10;;;;;;4893502;29;20055;-87
2021/04/12 11:44:54;;;;;;;1.85;0.68;;;16.10;29.20;;;;;;4921784;29;20133;-88
2021/04/12 11:47:29;;;;;;;2.78;0.57;;;15.10;30.40;;;;;;4905765;29;20118;-86
2021/04/12 11:50:21;;;;;;;2.17;0.70;;;13.10;33.40;;;;;;4883497;29;20127;-80
2021/04/12 11:52:56;;;;;;;1.88;0.60;;;12.20;37.20;;;;;;4920366;29;20138;-85
2021/04/12 11:55:34;;;;;;;1.90;0.68;;;13.00;35.40;;;;;;4903143;29;20074;-86
2021/04/12 11:58:09;;;;;;;3.30;0.82;;;16.10;31.10;;;;;;4903561;29;20080;-83
2021/04/12 12:00:45;;;;;;;1.83;0.60;;;17.90;28.90;;;;;;4915143;29;20060;-86
2021/04/12 12:04:01;;;;;;;3.17;0.60;;;20.30;25.90;;;;;;4920993;29;20055;-88
2021/04/12 12:06:43;;;;;;;1.17;0.53;;;20.10;24.00;;;;;;4919103;29;20413;-88
2021/04/12 12:09:24;;;;;;;1.23;0.43;;;19.50;25.30;;;;;;4909315;29;20050;-86
2021/04/12 12:12:03;;;;;;;2.13;0.45;;;16.90;27.20;;;;;;4917654;29;20072;-86
2021/04/12 12:14:36;;;;;;;0.68;0.40;;;14.60;29.50;;;;;;4914668;29;20036;-86
2021/04/12 12:17:13;;;;;;;1.15;0.57;;;12.70;31.60;;;;;;4915513;29;20085;-85
2021/04/12 12:19:47;;;;;;;2.20;0.50;;;11.30;34.70;;;;;;4900740;29;20060;-86
2021/04/12 12:22:23;;;;;;;1.92;0.52;;;10.40;38.60;;;;;;4900411;29;20361;-86
2021/04/12 12:25:03;;;;;;;4.30;1.00;;;10.70;37.70;;;;;;4913463;29;20347;-86
2021/04/12 12:27:34;;;;;;;5.43;1.15;;;10.20;41.60;;;;;;4887442;29;20040;-85
2021/04/12 12:30:09;;;;;;;1.98;0.90;;;9.60;46.10;;;;;;4901066;29;20054;-86
2021/04/12 12:32:58;;;;;;;1.77;0.70;;;9.20;45.30;;;;;;4916994;29;20059;-86
2021/04/12 12:35:35;;;;;;;3.17;0.90;;;8.90;46.40;;;;;;4918425;29;20044;-87
2021/04/12 12:38:30;;;;;;;2.58;1.05;;;10.90;42.60;;;;;;4903000;29;20232;-87
2021/04/12 12:41:02;;;;;;;1.88;0.80;;;12.00;40.10;;;;;;4906630;29;20374;-86
2021/04/12 12:43:40;;;;;;;1.27;0.70;;;12.60;37.30;;;;;;4902460;29;20277;-86
2021/04/12 12:46:12;;;;;;;2.55;0.93;;;11.60;38.90;;;;;;4918027;29;20044;-85
2021/04/12 12:48:47;;;;;;;1.73;0.90;;;11.10;40.00;;;;;;4886321;29;20056;-86
2021/04/12 12:51:28;;;;;;;1.35;0.88;;;10.70;40.30;;;;;;4888325;29;20115;-86
2021/04/12 12:54:03;;;;;;;3.35;0.70;;;10.10;41.40;;;;;;4888935;29;20066;-88
2021/04/12 12:56:36;;;;;;;1.92;0.88;;;11.70;39.30;;;;;;4909774;29;20072;-87
2021/04/12 12:59:10;;;;;;;2.83;0.85;;;14.60;34.30;;;;;;4902463;29;20079;-88
2021/04/12 13:01:40;;;;;;;1.23;0.55;;;17.20;27.20;;;;;;4913621;29;20064;-85
2021/04/12 13:04:15;;;;;;;3.13;0.95;;;16.60;27.30;;;;;;4903712;29;20066;-87
2021/04/12 13:06:48;;;;;;;2.78;1.10;;;14.90;29.10;;;;;;4917592;29;20083;-87
2021/04/12 13:09:30;;;;;;;3.33;1.58;;;13.50;32.30;;;;;;4917685;29;20049;-88
2021/04/12 13:12:10;;;;;;;3.60;1.00;;;15.50;29.50;;;;;;4903675;29;20052;-87
2021/04/12 13:14:45;;;;;;;3.20;1.15;;;15.50;29.10;;;;;;4919938;29;20123;-86
2021/04/12 13:17:29;;;;;;;3.10;1.30;;;17.60;26.20;;;;;;4906758;29;20342;-87
2021/04/12 13:20:01;;;;;;;4.30;1.73;;;18.20;24.20;;;;;;4893926;29;20638;-88
2021/04/12 13:22:34;;;;;;;3.05;1.20;;;18.30;23.30;;;;;;4903892;29;20057;-86
2021/04/12 13:25:21;;;;;;;3.80;1.40;;;19.00;23.40;;;;;;4887735;29;20064;-86
2021/04/12 13:27:54;;;;;;;2.20;1.00;;;20.60;22.00;;;;;;4900898;29;20052;-88
2021/04/12 13:30:27;;;;;;;2.40;0.95;;;18.90;21.90;;;;;;4919135;29;20342;-88
2021/04/12 13:33:00;;;;;;;2.45;1.17;;;19.50;22.20;;;;;;4918389;29;20235;-87
2021/04/12 13:35:32;;;;;;;2.92;1.20;;;20.40;22.20;;;;;;4901793;29;20048;-88
2021/04/12 13:38:09;;;;;;;2.03;0.90;;;20.50;20.70;;;;;;4903564;29;20059;-87
2021/04/12 13:40:46;;;;;;;3.22;1.23;;;20.10;21.30;;;;;;4919769;29;20358;-88
2021/04/12 13:43:17;;;;;;;1.90;0.93;;;20.70;21.30;;;;;;4909670;29;20040;-85
2021/04/12 13:45:49;;;;;;;2.33;1.10;;;18.80;22.80;;;;;;4892263;29;20061;-88
2021/04/12 13:48:23;;;;;;;2.22;0.70;;;19.40;24.00;;;;;;4903968;29;20047;-86
2021/04/12 13:51:02;;;;;;;1.95;0.80;;;19.20;21.80;;;;;;4921073;29;20041;-85
2021/04/12 13:53:38;;;;;;;2.05;1.20;;;18.50;23.80;;;;;;4919624;29;20059;-85
2021/04/12 13:56:10;;;;;;;2.17;0.93;;;18.80;21.40;;;;;;4924826;29;20064;-88
2021/04/12 13:58:46;;;;;;;1.50;0.90;;;19.70;20.50;;;;;;4890591;29;20366;-89
2021/04/12 14:01:19;;;;;;;1.80;0.80;;;17.80;23.70;;;;;;4903323;29;20053;-88
2021/04/12 14:04:10;;;;;;;2.67;0.88;;;16.50;24.80;;;;;;4919720;29;20064;-86
2021/04/12 14:06:47;;;;;;;2.85;1.00;;;15.70;26.30;;;;;;4910224;29;20134;-87
2021/04/12 14:09:18;;;;;;;3.58;1.33;;;16.20;27.10;;;;;;4923090;29;20432;-86
2021/04/12 14:11:54;;;;;;;1.67;1.00;;;15.60;28.40;;;;;;4924588;29;20063;-86
2021/04/12 14:14:23;;;;;;;3.28;1.33;;;15.20;30.20;;;;;;4921352;29;20060;-87
2021/04/12 14:17:02;;;;;;;1.95;1.15;;;16.50;29.30;;;;;;4905193;29;20077;-87
2021/04/12 14:19:36;;;;;;;2.30;0.90;;;18.40;26.30;;;;;;4922326;29;20052;-87
2021/04/12 14:22:12;;;;;;;4.05;1.10;;;20.20;24.30;;;;;;4888229;29;20056;-87
2021/04/12 14:24:44;;;;;;;2.67;0.70;;;21.10;22.60;;;;;;4905766;29;20061;-87
2021/04/12 14:27:23;;;;;;;1.17;0.57;;;20.80;22.60;;;;;;4920047;29;20052;-87
2021/04/12 14:29:58;;;;;;;2.08;0.98;;;19.90;23.90;;;;;;4923849;29;20239;-86
2021/04/12 14:32:32;;;;;;;3.67;0.68;;;17.80;27.30;;;;;;4921805;29;20107;-88
2021/04/12 14:35:06;;;;;;;2.47;0.60;;;19.60;26.80;;;;;;4923415;29;20060;-85
2021/04/12 14:37:39;;;;;;;2.78;1.02;;;18.60;28.00;;;;;;4934287;29;20067;-87
2021/04/12 14:40:30;;;;;;;2.33;0.90;;;17.50;29.90;;;;;;4921972;29;20064;-87
2021/04/12 14:43:18;;;;;;;3.58;0.85;;;16.50;32.60;;;;;;4907115;29;20067;-89
2021/04/12 14:45:51;;;;;;;2.95;1.10;;;17.20;31.50;;;;;;4921745;29;20343;-88
2021/04/12 14:48:27;;;;;;;3.50;1.10;;;19.00;29.50;;;;;;4904050;29;20080;-86
2021/04/12 14:50:56;;;;;;;1.45;0.70;;;18.40;28.10;;;;;;4904641;29;20123;-87
2021/04/12 14:53:29;;;;;;;2.13;1.00;;;18.30;27.80;;;;;;4909197;29;20047;-86
2021/04/12 14:56:04;;;;;;;4.68;1.15;;;16.90;30.10;;;;;;4910832;29;20288;-88
2021/04/12 14:58:35;;;;;;;2.55;1.05;;;16.00;31.70;;;;;;4905327;29;20107;-85
2021/04/12 15:01:11;;;;;;;2.47;1.23;;;15.20;33.40;;;;;;4921148;29;20063;-87
2021/04/12 15:03:51;;;;;;;3.05;1.05;;;17.10;30.70;;;;;;4896408;29;20288;-87
2021/04/12 15:06:23;;;;;;;2.70;1.15;;;18.90;28.10;;;;;;4922796;29;20351;-87
2021/04/12 15:08:54;;;;;;;2.85;1.27;;;20.20;26.30;;;;;;4919873;29;20064;-88
2021/04/12 15:11:30;;;;;;;3.78;1.02;;;20.40;25.60;;;;;;4905975;29;20056;-88
2021/04/12 15:14:02;;;;;;;2.50;0.77;;;21.10;25.30;;;;;;4922436;29;20067;-88